首页
METAR-TAF:

METAR-TAF

机场 :

石油平台

Sleipner, 挪威

纬度: 58-22-00N, 经度: 001-54-25E, 海拔: 50米

当前天气观测

该预报发布于37分钟前的08:20 UTC
风速22节,风向东南
温度 12°C
湿度 94%
气压 1011 hPa
能見度: 1800
轻雾

METAR: ENSL 220820Z AUTO 13022KT 1800NDV BR NCD 12/11 Q1011 W11/S3

时间: 10:57 (08:57 UTC)


TAF: 丢失

超过4000个机场的气象观测和天气预报(METAR&TAF报告)。

可查询的气象台以黄色和红色小点在地图上表示。

将鼠标移到小点上方,可查看气象台名称。

然后点击查看天气观测和预报。

如需切换地图:点击带黑十字的绿色按钮放大地图;点击带横线的绿色按钮缩小地图;或者点击绿色箭头查看邻近地区的地图。


METAR-TAF: